createdAt,value
2022-10-30T00:00:36.846Z,29.32
2022-10-30T00:03:04.296Z,29.49
2022-10-30T00:05:31.244Z,29.42
2022-10-30T00:07:59.585Z,29.45
2022-10-30T00:10:26.510Z,29.38
2022-10-30T00:12:53.703Z,29.21
2022-10-30T00:15:20.293Z,29.14
2022-10-30T00:17:46.860Z,29.04
2022-10-30T00:20:13.414Z,28.98
2022-10-30T00:22:39.965Z,29.54
2022-10-30T00:25:06.860Z,28.96
2022-10-30T00:27:33.393Z,29.21
2022-10-30T00:29:59.958Z,29.62
2022-10-30T00:32:28.577Z,29.81
2022-10-30T00:34:55.161Z,29.96
2022-10-30T00:37:21.809Z,29.95
2022-10-30T00:39:49.312Z,29.79
2022-10-30T00:42:17.583Z,29.87
2022-10-30T00:44:44.250Z,29.53
2022-10-30T00:47:23.278Z,30.02
2022-10-30T00:49:58.837Z,30.11
2022-10-30T00:52:29.837Z,30.29
2022-10-30T00:54:58.368Z,30.52
2022-10-30T00:57:27.109Z,30.65
2022-10-30T00:59:54.014Z,30.45
2022-10-30T01:02:21.559Z,30.35
2022-10-30T01:04:51.143Z,30.38
2022-10-30T01:07:18.100Z,30.10
2022-10-30T01:09:46.836Z,29.86
2022-10-30T01:12:15.802Z,29.94
2022-10-30T01:14:52.124Z,29.84
2022-10-30T01:17:58.887Z,29.97
2022-10-30T01:20:41.377Z,30.22
2022-10-30T01:23:13.802Z,30.01
2022-10-30T01:26:10.921Z,30.28
2022-10-30T01:29:14.866Z,30.49
2022-10-30T01:31:51.932Z,30.28
2022-10-30T01:34:28.468Z,30.47
2022-10-30T01:37:02.877Z,30.55
2022-10-30T01:39:37.378Z,30.67
2022-10-30T01:42:45.709Z,30.76
2022-10-30T01:45:21.930Z,30.63
2022-10-30T01:47:59.660Z,30.73
2022-10-30T01:50:39.433Z,30.72
2022-10-30T01:53:20.707Z,30.73
2022-10-30T01:56:10.481Z,30.82
2022-10-30T01:58:48.011Z,30.79
2022-10-30T02:01:15.523Z,30.66
2022-10-30T02:03:43.907Z,30.70
2022-10-30T02:06:10.507Z,30.71
2022-10-30T02:08:37.491Z,30.86
2022-10-30T02:11:05.285Z,30.52
2022-10-30T02:13:38.456Z,30.48
2022-10-30T02:16:05.829Z,30.63
2022-10-30T02:18:32.493Z,30.60
2022-10-30T02:21:01.070Z,30.31
2022-10-30T02:23:27.711Z,30.03
2022-10-30T02:25:54.922Z,29.88
2022-10-30T02:28:21.701Z,29.47
2022-10-30T02:30:48.885Z,29.19
2022-10-30T02:33:15.503Z,29.57
2022-10-30T02:35:42.422Z,29.68
2022-10-30T02:38:09.116Z,29.41
2022-10-30T02:40:35.692Z,29.47
2022-10-30T02:43:02.446Z,29.88
2022-10-30T02:45:29.767Z,30.23
2022-10-30T02:47:56.763Z,30.21
2022-10-30T02:50:23.596Z,30.08
2022-10-30T02:52:51.557Z,30.27
2022-10-30T02:55:18.214Z,30.26
2022-10-30T02:57:44.997Z,30.09
2022-10-30T03:00:12.803Z,30.16
2022-10-30T03:02:39.697Z,29.90
2022-10-30T03:05:06.838Z,29.97
2022-10-30T03:07:33.689Z,29.92
2022-10-30T03:10:00.630Z,30.30
2022-10-30T03:12:27.579Z,30.28
2022-10-30T03:14:54.175Z,30.18
2022-10-30T03:17:20.919Z,29.94
2022-10-30T03:19:48.980Z,29.91
2022-10-30T03:22:15.571Z,29.79
2022-10-30T03:24:42.316Z,29.94
2022-10-30T03:27:08.886Z,29.63
2022-10-30T03:29:35.576Z,29.84
2022-10-30T03:32:04.128Z,29.90
2022-10-30T03:34:35.841Z,30.07
2022-10-30T03:37:06.425Z,30.27
2022-10-30T03:39:33.605Z,30.31
2022-10-30T03:42:02.304Z,30.28
2022-10-30T03:44:28.887Z,30.27
2022-10-30T03:46:56.425Z,30.20
2022-10-30T03:49:29.936Z,30.00
2022-10-30T03:51:57.544Z,30.14
2022-10-30T03:54:25.934Z,30.15
2022-10-30T03:56:52.605Z,30.04
2022-10-30T03:59:20.077Z,29.62
2022-10-30T04:02:03.999Z,29.63
2022-10-30T04:04:32.788Z,29.72
2022-10-30T04:06:59.427Z,29.76
2022-10-30T04:09:25.988Z,29.64
2022-10-30T04:11:53.587Z,29.30
2022-10-30T04:14:20.199Z,29.29
2022-10-30T04:16:48.177Z,29.29
2022-10-30T04:19:15.144Z,29.27
2022-10-30T04:21:46.358Z,29.25
2022-10-30T04:24:16.075Z,29.02
2022-10-30T04:26:44.943Z,29.15
2022-10-30T04:29:12.145Z,28.68
2022-10-30T04:31:39.396Z,28.67
2022-10-30T04:34:06.087Z,28.76
2022-10-30T04:36:35.521Z,28.56
2022-10-30T04:39:02.556Z,28.45
2022-10-30T04:41:29.519Z,28.56
2022-10-30T04:44:04.045Z,28.64
2022-10-30T04:46:33.011Z,28.68
2022-10-30T04:49:06.956Z,28.68
2022-10-30T04:51:33.538Z,28.67
2022-10-30T04:54:01.391Z,28.75
2022-10-30T04:56:32.876Z,28.80
2022-10-30T04:58:59.824Z,28.75
2022-10-30T05:01:26.523Z,28.67
2022-10-30T05:03:54.796Z,28.81
2022-10-30T05:06:25.065Z,28.77
2022-10-30T05:08:52.089Z,28.83
2022-10-30T05:11:45.365Z,28.90
2022-10-30T05:14:13.112Z,28.79
2022-10-30T05:16:39.740Z,28.71
2022-10-30T05:19:07.365Z,28.73
2022-10-30T05:21:35.161Z,28.67
2022-10-30T05:24:02.126Z,28.71
2022-10-30T05:26:35.919Z,28.71
2022-10-30T05:29:02.774Z,28.61
2022-10-30T05:31:29.764Z,28.45
2022-10-30T05:34:07.416Z,28.26
2022-10-30T05:36:35.994Z,28.36
2022-10-30T05:39:03.348Z,28.41
2022-10-30T05:41:34.233Z,28.33
2022-10-30T05:44:01.171Z,28.00
2022-10-30T05:46:27.790Z,27.99
2022-10-30T05:48:56.373Z,27.95
2022-10-30T05:51:24.239Z,27.96
2022-10-30T05:53:55.024Z,27.35
2022-10-30T05:56:25.604Z,27.71
2022-10-30T05:58:52.173Z,27.52
2022-10-30T06:01:18.867Z,27.28
2022-10-30T06:03:50.124Z,27.18
2022-10-30T06:06:17.146Z,27.15
2022-10-30T06:08:44.534Z,27.31
2022-10-30T06:11:30.248Z,27.16
2022-10-30T06:13:59.117Z,27.51
2022-10-30T06:16:38.597Z,27.83
2022-10-30T06:19:22.042Z,27.88
2022-10-30T06:21:51.442Z,27.71
2022-10-30T06:24:27.693Z,27.97
2022-10-30T06:27:26.683Z,27.85
2022-10-30T06:29:54.884Z,27.87
2022-10-30T06:32:22.044Z,27.41
2022-10-30T06:34:49.328Z,27.89
2022-10-30T06:37:17.827Z,28.61
2022-10-30T06:39:44.918Z,28.78
2022-10-30T06:42:48.495Z,28.88
2022-10-30T06:45:37.161Z,29.12
2022-10-30T06:48:03.802Z,29.08
2022-10-30T06:50:36.389Z,29.20
2022-10-30T06:53:02.952Z,29.45
2022-10-30T06:55:29.849Z,29.37
2022-10-30T06:58:19.884Z,29.51
2022-10-30T07:00:52.652Z,29.34
2022-10-30T07:03:42.516Z,29.51
2022-10-30T07:06:09.126Z,29.22
2022-10-30T07:08:36.421Z,29.27
2022-10-30T07:11:03.285Z,29.45
2022-10-30T07:14:00.363Z,29.38
2022-10-30T07:16:33.769Z,29.32
2022-10-30T07:19:04.469Z,29.33
2022-10-30T07:21:32.175Z,29.48
2022-10-30T07:23:58.830Z,29.51
2022-10-30T07:26:33.579Z,29.70
2022-10-30T07:29:06.491Z,29.82
2022-10-30T07:31:42.628Z,30.69
2022-10-30T07:34:55.070Z,31.72
2022-10-30T07:37:35.178Z,32.88
2022-10-30T07:40:12.532Z,33.56
2022-10-30T07:43:06.207Z,34.68
2022-10-30T07:45:58.816Z,35.76
2022-10-30T07:48:44.171Z,36.73
2022-10-30T07:51:28.891Z,37.67
2022-10-30T07:53:55.491Z,38.46
2022-10-30T07:56:23.846Z,38.93
2022-10-30T07:58:56.151Z,39.69
2022-10-30T08:01:44.381Z,40.05
2022-10-30T08:04:32.097Z,40.85
2022-10-30T08:07:06.658Z,41.46
2022-10-30T08:09:35.216Z,41.62
2022-10-30T08:12:02.352Z,41.70
2022-10-30T08:14:29.426Z,42.07
2022-10-30T08:16:56.663Z,42.51
2022-10-30T08:19:23.628Z,42.72
2022-10-30T08:21:50.255Z,43.27
2022-10-30T08:24:18.974Z,43.37
2022-10-30T08:26:47.900Z,43.66
2022-10-30T08:29:15.221Z,43.94
2022-10-30T08:31:43.884Z,44.20
2022-10-30T08:34:23.015Z,44.69
2022-10-30T08:36:52.771Z,44.89
2022-10-30T08:39:20.032Z,45.05
2022-10-30T08:42:04.589Z,45.47
2022-10-30T08:44:37.009Z,46.33
2022-10-30T08:47:22.370Z,46.02
2022-10-30T08:49:49.724Z,45.95
2022-10-30T08:52:19.618Z,45.97
2022-10-30T08:54:51.751Z,46.27
2022-10-30T08:57:18.590Z,46.20
2022-10-30T08:59:45.479Z,46.51
2022-10-30T09:02:31.037Z,46.75
2022-10-30T09:05:37.300Z,46.13
2022-10-30T09:08:23.905Z,46.31
2022-10-30T09:11:03.043Z,46.52
2022-10-30T09:13:30.171Z,46.57
2022-10-30T09:16:02.381Z,45.95
2022-10-30T09:18:31.606Z,45.49
2022-10-30T09:21:01.587Z,45.35
2022-10-30T09:23:33.390Z,45.41
2022-10-30T09:26:20.905Z,45.63
2022-10-30T09:29:00.527Z,45.22
2022-10-30T09:31:46.013Z,45.13
2022-10-30T09:34:17.337Z,45.23
2022-10-30T09:36:58.710Z,45.46
2022-10-30T09:39:25.614Z,45.74
2022-10-30T09:42:08.611Z,45.92
2022-10-30T09:45:27.222Z,46.29
2022-10-30T09:48:51.514Z,46.38
2022-10-30T09:51:38.870Z,46.24
2022-10-30T09:54:23.677Z,45.69
2022-10-30T09:57:11.290Z,45.51
2022-10-30T09:59:56.559Z,45.79
2022-10-30T10:02:45.102Z,45.96
2022-10-30T10:05:21.219Z,45.79
2022-10-30T10:08:21.758Z,44.91
2022-10-30T10:11:24.511Z,45.36
2022-10-30T10:13:58.689Z,45.10
2022-10-30T10:16:30.265Z,44.88
2022-10-30T10:19:13.183Z,44.58
2022-10-30T10:21:46.387Z,44.83
2022-10-30T10:24:23.694Z,44.88
2022-10-30T10:26:57.586Z,45.07
2022-10-30T10:29:34.029Z,43.93
2022-10-30T10:32:24.153Z,44.09
2022-10-30T10:34:59.415Z,43.51
2022-10-30T10:37:40.756Z,43.34
2022-10-30T10:40:44.224Z,42.97
2022-10-30T10:43:13.711Z,42.47
2022-10-30T10:45:52.622Z,42.55
2022-10-30T10:48:38.334Z,40.89
2022-10-30T10:51:09.666Z,39.87
2022-10-30T10:53:57.590Z,39.83
2022-10-30T10:56:38.019Z,38.84
2022-10-30T10:59:13.130Z,38.57
2022-10-30T11:01:44.178Z,38.53
2022-10-30T11:04:26.353Z,38.77
2022-10-30T11:06:55.496Z,38.87
2022-10-30T11:09:24.449Z,38.94
2022-10-30T11:11:53.376Z,38.44
2022-10-30T11:14:22.450Z,38.05
2022-10-30T11:16:51.688Z,38.52
2022-10-30T11:19:19.145Z,38.12
2022-10-30T11:21:51.508Z,37.46
2022-10-30T11:24:50.589Z,37.56
2022-10-30T11:27:23.205Z,37.23
2022-10-30T11:30:05.562Z,37.82
2022-10-30T11:32:34.199Z,37.63
2022-10-30T11:35:07.216Z,37.57
2022-10-30T11:37:36.147Z,37.73
2022-10-30T11:40:11.660Z,37.62
2022-10-30T11:42:42.630Z,38.01
2022-10-30T11:45:23.853Z,37.09
2022-10-30T11:47:52.118Z,36.90
2022-10-30T11:50:22.788Z,37.17
2022-10-30T11:52:53.803Z,37.53
2022-10-30T11:55:29.822Z,37.38
2022-10-30T11:57:58.392Z,37.24
2022-10-30T12:00:30.530Z,36.91
2022-10-30T12:03:02.081Z,36.93
2022-10-30T12:05:32.012Z,36.16
2022-10-30T12:08:07.820Z,36.71
2022-10-30T12:10:56.151Z,36.91
2022-10-30T12:13:24.393Z,36.63
2022-10-30T12:16:04.701Z,36.79
2022-10-30T12:18:32.394Z,36.49
2022-10-30T12:20:59.666Z,35.76
2022-10-30T12:23:28.704Z,36.04
2022-10-30T12:26:01.600Z,36.36
2022-10-30T12:28:31.524Z,36.50
2022-10-30T12:31:11.397Z,36.98
2022-10-30T12:34:06.210Z,36.83
2022-10-30T12:36:54.261Z,37.09
2022-10-30T12:39:32.517Z,36.26
2022-10-30T12:42:14.681Z,36.66
2022-10-30T12:44:47.840Z,36.35
2022-10-30T12:47:20.441Z,36.17
2022-10-30T12:50:13.997Z,36.54
2022-10-30T12:52:47.552Z,35.98
2022-10-30T12:55:41.595Z,36.44
2022-10-30T12:58:18.551Z,36.65
2022-10-30T13:00:57.549Z,37.32
2022-10-30T13:03:32.671Z,37.48
2022-10-30T13:06:16.341Z,37.55
2022-10-30T13:09:05.546Z,37.74
2022-10-30T13:11:45.648Z,37.80
2022-10-30T13:14:18.811Z,37.99
2022-10-30T13:16:45.424Z,38.32
2022-10-30T13:19:13.715Z,38.40
2022-10-30T13:21:59.253Z,38.58
2022-10-30T13:25:00.769Z,38.63
2022-10-30T13:27:51.095Z,38.13
2022-10-30T13:30:21.043Z,37.40
2022-10-30T13:33:08.941Z,38.00
2022-10-30T13:35:56.601Z,38.17
2022-10-30T13:38:40.504Z,37.54
2022-10-30T13:41:38.573Z,37.58
2022-10-30T13:44:12.296Z,37.76
2022-10-30T13:46:47.855Z,38.14
2022-10-30T13:49:27.814Z,38.28
2022-10-30T13:52:05.872Z,38.05
2022-10-30T13:54:37.580Z,38.52
2022-10-30T13:57:31.343Z,38.45
2022-10-30T14:00:13.488Z,37.65
2022-10-30T14:02:59.003Z,37.50
2022-10-30T14:05:43.918Z,37.56
2022-10-30T14:08:22.324Z,37.56
2022-10-30T14:10:57.504Z,37.36
2022-10-30T14:13:29.250Z,37.84
2022-10-30T14:16:00.626Z,37.40
2022-10-30T14:18:30.401Z,36.60
2022-10-30T14:20:59.521Z,36.70
2022-10-30T14:23:36.595Z,36.85
2022-10-30T14:26:03.461Z,36.08
2022-10-30T14:28:35.873Z,35.91
2022-10-30T14:31:28.766Z,35.87
2022-10-30T14:33:55.690Z,35.89
2022-10-30T14:36:46.919Z,35.94
2022-10-30T14:39:13.436Z,35.64
2022-10-30T14:42:07.579Z,35.62
2022-10-30T14:44:47.186Z,35.31
2022-10-30T14:47:41.888Z,34.79
2022-10-30T14:50:28.171Z,35.14
2022-10-30T14:53:09.983Z,35.28
2022-10-30T14:55:36.608Z,35.25
2022-10-30T14:58:03.163Z,35.35
2022-10-30T15:00:32.769Z,35.60
2022-10-30T15:03:39.652Z,35.72
2022-10-30T15:06:21.963Z,35.69
2022-10-30T15:09:14.798Z,35.70
2022-10-30T15:12:16.903Z,35.45
2022-10-30T15:14:59.581Z,35.57
2022-10-30T15:17:31.583Z,35.48
2022-10-30T15:20:01.425Z,35.36
2022-10-30T15:22:30.179Z,35.47
2022-10-30T15:24:56.922Z,35.20
2022-10-30T15:27:25.923Z,35.37
2022-10-30T15:29:56.235Z,35.67
2022-10-30T15:32:24.432Z,35.43
2022-10-30T15:35:02.972Z,35.33
2022-10-30T15:37:31.158Z,35.36
2022-10-30T15:40:10.723Z,35.24
2022-10-30T15:42:39.182Z,35.02
2022-10-30T15:45:15.707Z,34.94
2022-10-30T15:47:48.346Z,35.58
2022-10-30T15:50:17.003Z,35.64
2022-10-30T15:52:43.966Z,35.76
2022-10-30T15:55:16.616Z,35.69
2022-10-30T15:58:13.155Z,35.37
2022-10-30T16:00:36.744Z,35.23
2022-10-30T16:03:16.208Z,35.06
2022-10-30T16:05:42.927Z,35.05
2022-10-30T16:08:14.649Z,34.92
2022-10-30T16:10:44.055Z,34.36
2022-10-30T16:13:18.298Z,34.00
2022-10-30T16:15:47.959Z,33.95
2022-10-30T16:18:16.816Z,33.67
2022-10-30T16:20:47.840Z,33.65
2022-10-30T16:23:17.620Z,33.61
2022-10-30T16:25:47.161Z,33.36
2022-10-30T16:28:30.168Z,33.40
2022-10-30T16:31:00.119Z,33.25
2022-10-30T16:33:30.532Z,33.08
2022-10-30T16:35:58.268Z,32.92
2022-10-30T16:38:28.738Z,32.77
2022-10-30T16:40:56.313Z,32.80
2022-10-30T16:43:33.912Z,32.76
2022-10-30T16:46:15.585Z,32.43
2022-10-30T16:48:48.635Z,32.42
2022-10-30T16:51:17.621Z,32.27
2022-10-30T16:53:48.741Z,32.38
2022-10-30T16:56:26.487Z,32.25
2022-10-30T16:58:56.315Z,32.06
2022-10-30T17:01:27.078Z,31.81
2022-10-30T17:03:55.492Z,31.66
2022-10-30T17:06:40.056Z,31.78
2022-10-30T17:09:28.653Z,31.77
2022-10-30T17:12:12.901Z,31.68
2022-10-30T17:15:11.104Z,31.62
2022-10-30T17:17:40.053Z,31.59
2022-10-30T17:20:30.788Z,31.76
2022-10-30T17:23:18.991Z,31.58
2022-10-30T17:25:46.924Z,31.43
2022-10-30T17:28:46.868Z,31.51
2022-10-30T17:31:31.741Z,31.43
2022-10-30T17:34:10.950Z,31.30
2022-10-30T17:36:38.147Z,31.23
2022-10-30T17:39:04.900Z,31.08
2022-10-30T17:41:31.688Z,30.82
2022-10-30T17:43:59.593Z,30.88
2022-10-30T17:46:26.282Z,30.84
2022-10-30T17:48:53.073Z,30.89
2022-10-30T17:51:19.888Z,30.85
2022-10-30T17:53:49.729Z,30.55
2022-10-30T17:56:31.457Z,30.60
2022-10-30T17:58:58.844Z,30.53
2022-10-30T18:01:26.907Z,30.50
2022-10-30T18:03:55.393Z,30.62
2022-10-30T18:06:25.662Z,30.52
2022-10-30T18:08:53.444Z,30.54
2022-10-30T18:11:22.933Z,30.64
2022-10-30T18:13:51.777Z,30.56
2022-10-30T18:16:19.414Z,30.59
2022-10-30T18:18:46.211Z,30.57
2022-10-30T18:21:15.121Z,30.63
2022-10-30T18:23:57.707Z,30.58
2022-10-30T18:26:27.203Z,30.77
2022-10-30T18:28:54.758Z,31.12
2022-10-30T18:31:23.560Z,31.23
2022-10-30T18:33:50.361Z,31.38
2022-10-30T18:36:19.872Z,31.25
2022-10-30T18:38:47.359Z,31.18
2022-10-30T18:41:33.919Z,31.02
2022-10-30T18:44:00.981Z,31.05
2022-10-30T18:46:30.693Z,31.05
2022-10-30T18:48:57.671Z,31.11
2022-10-30T18:51:28.592Z,31.14
2022-10-30T18:53:56.949Z,31.07
2022-10-30T18:56:26.833Z,31.48
2022-10-30T18:58:58.760Z,31.65
2022-10-30T19:01:32.045Z,31.20
2022-10-30T19:04:03.606Z,30.69
2022-10-30T19:06:30.845Z,30.69
2022-10-30T19:08:57.578Z,30.67
2022-10-30T19:11:25.434Z,30.74
2022-10-30T19:13:53.827Z,30.72
2022-10-30T19:16:21.636Z,30.65
2022-10-30T19:18:48.853Z,30.78
2022-10-30T19:21:18.366Z,30.85
2022-10-30T19:23:45.356Z,30.77
2022-10-30T19:26:14.829Z,30.69
2022-10-30T19:28:41.967Z,30.66
2022-10-30T19:31:13.837Z,30.58
2022-10-30T19:33:40.655Z,30.51
2022-10-30T19:36:26.899Z,30.02
2022-10-30T19:38:54.029Z,29.70
2022-10-30T19:41:20.912Z,29.59
2022-10-30T19:43:48.295Z,29.50
2022-10-30T19:46:16.168Z,29.43
2022-10-30T19:48:59.895Z,29.39
2022-10-30T19:51:28.233Z,29.29
2022-10-30T19:53:55.475Z,29.29
2022-10-30T19:56:22.255Z,29.24
2022-10-30T19:58:49.758Z,29.20
2022-10-30T20:01:18.677Z,29.14
2022-10-30T20:03:45.896Z,29.16
2022-10-30T20:06:13.556Z,28.96
2022-10-30T20:08:40.867Z,29.06
2022-10-30T20:11:07.619Z,29.05
2022-10-30T20:13:34.666Z,29.16
2022-10-30T20:16:04.531Z,29.23
2022-10-30T20:18:34.417Z,29.23
2022-10-30T20:21:15.106Z,29.14
2022-10-30T20:23:42.057Z,29.25
2022-10-30T20:26:26.812Z,28.64
2022-10-30T20:28:54.266Z,28.85
2022-10-30T20:31:21.965Z,28.79
2022-10-30T20:33:48.573Z,28.43
2022-10-30T20:36:15.310Z,28.32
2022-10-30T20:38:42.621Z,28.43
2022-10-30T20:41:20.587Z,28.51
2022-10-30T20:43:47.277Z,28.38
2022-10-30T20:46:13.989Z,28.33
2022-10-30T20:48:40.827Z,28.01
2022-10-30T20:51:07.552Z,27.99
2022-10-30T20:53:34.270Z,28.15
2022-10-30T20:56:01.027Z,28.12
2022-10-30T20:58:27.935Z,28.03
2022-10-30T21:00:57.931Z,27.86
2022-10-30T21:03:26.005Z,27.75
2022-10-30T21:05:58.408Z,27.78
2022-10-30T21:08:29.553Z,27.77
2022-10-30T21:11:03.711Z,27.65
2022-10-30T21:13:30.845Z,27.81
2022-10-30T21:16:04.615Z,27.81
2022-10-30T21:18:31.480Z,27.72
2022-10-30T21:21:06.405Z,27.91
2022-10-30T21:23:33.026Z,27.89
2022-10-30T21:26:00.942Z,27.92
2022-10-30T21:28:27.530Z,27.91
2022-10-30T21:30:54.130Z,27.97
2022-10-30T21:33:20.705Z,27.74
2022-10-30T21:35:47.274Z,27.85
2022-10-30T21:38:13.815Z,27.90
2022-10-30T21:40:40.445Z,27.76
2022-10-30T21:43:07.511Z,27.68
2022-10-30T21:45:34.373Z,27.57
2022-10-30T21:48:01.235Z,27.71
2022-10-30T21:50:27.795Z,27.80
2022-10-30T21:52:54.878Z,27.83
2022-10-30T21:55:21.449Z,27.67
2022-10-30T21:57:48.004Z,27.71
2022-10-30T22:00:15.285Z,27.59
2022-10-30T22:02:41.828Z,27.55
2022-10-30T22:05:09.057Z,27.52
2022-10-30T22:07:35.683Z,27.50
2022-10-30T22:10:02.374Z,27.41
2022-10-30T22:12:28.951Z,27.55
2022-10-30T22:14:55.501Z,27.57
2022-10-30T22:17:22.116Z,27.56
2022-10-30T22:19:48.699Z,27.58
2022-10-30T22:22:15.463Z,27.36
2022-10-30T22:24:42.142Z,27.31
2022-10-30T22:27:08.699Z,27.16
2022-10-30T22:29:35.687Z,27.25
2022-10-30T22:32:02.337Z,27.48
2022-10-30T22:34:29.085Z,27.20
2022-10-30T22:36:55.703Z,27.14
2022-10-30T22:39:22.360Z,27.20
2022-10-30T22:41:49.620Z,26.70
2022-10-30T22:44:18.539Z,26.95
2022-10-30T22:46:45.210Z,27.01
2022-10-30T22:49:11.910Z,27.11
2022-10-30T22:51:39.990Z,27.07
2022-10-30T22:54:09.589Z,27.09
2022-10-30T22:56:36.997Z,27.37
2022-10-30T22:59:10.967Z,27.15
2022-10-30T23:01:38.755Z,27.10
2022-10-30T23:04:06.692Z,27.04
2022-10-30T23:06:34.768Z,27.14
2022-10-30T23:09:05.378Z,27.17
2022-10-30T23:11:33.425Z,26.83
2022-10-30T23:14:00.034Z,27.14
2022-10-30T23:16:27.640Z,27.27
2022-10-30T23:18:56.782Z,27.13
2022-10-30T23:21:25.322Z,27.09
2022-10-30T23:23:52.590Z,27.07
2022-10-30T23:26:21.996Z,27.04
2022-10-30T23:28:50.729Z,27.14
2022-10-30T23:31:23.405Z,27.21
2022-10-30T23:33:51.591Z,27.24
2022-10-30T23:36:18.725Z,27.23
2022-10-30T23:38:51.194Z,27.31
2022-10-30T23:41:17.829Z,27.30
2022-10-30T23:43:44.482Z,27.28
2022-10-30T23:46:11.052Z,27.34
2022-10-30T23:48:37.697Z,27.44
2022-10-30T23:51:08.305Z,27.40
2022-10-30T23:53:35.149Z,27.34
2022-10-30T23:56:01.927Z,27.28
2022-10-30T23:58:28.513Z,27.37
